Time;durP1;ratioP1;P1;durP2;ratioP2;P2;SDS_P1;SDS_P2;PMS_P1;PMS_P2;Temp;Humidity;BMP_temperature;BMP_pressure;BME280_temperature;BME280_humidity;BME280_pressure;Samples;Min_cycle;Max_cycle;Signal;HPM_P1;HPM_P2
2022/01/11 00:01:47;;;;;;;94.85;36.78;;;;;;;;;;5052972;28;20491;-68
2022/01/11 00:04:16;;;;;;;345.75;53.35;;;;;;;;;;5026324;28;20072;-68
2022/01/11 00:06:48;;;;;;;140.90;38.70;;;;;;;;;;5017550;28;20476;-68
2022/01/11 00:09:33;;;;;;;256.00;44.40;;;;;;;;;;5047998;28;20045;-68
2022/01/11 00:12:00;;;;;;;164.10;38.65;;;;;;;;;;5048577;28;20049;-68
2022/01/11 00:14:26;;;;;;;450.83;61.88;;;;;;;;;;5043784;28;20033;-68
2022/01/11 00:16:52;;;;;;;385.23;52.72;;;;;;;;;;5051484;28;20395;-68
2022/01/11 00:19:18;;;;;;;126.60;36.40;;;;;;;;;;5052384;28;20053;-68
2022/01/11 00:21:46;;;;;;;94.65;34.30;;;;;;;;;;5051396;28;20411;-68
2022/01/11 00:24:33;;;;;;;297.60;45.95;;;;;;;;;;5052565;28;20041;-68
2022/01/11 00:27:02;;;;;;;317.55;46.92;;;;;;;;;;5035016;28;20048;-68
2022/01/11 00:29:29;;;;;;;128.13;36.47;;;;;;;;;;5033864;28;20567;-68
2022/01/11 00:32:00;;;;;;;276.42;45.40;;;;;;;;;;5051741;28;20051;-68
2022/01/11 00:34:28;;;;;;;143.57;36.63;;;;;;;;;;5053482;28;20060;-68
2022/01/11 00:36:54;;;;;;;252.55;45.97;;;;;;;;;;5051224;28;20045;-69
2022/01/11 00:39:20;;;;;;;181.65;40.25;;;;;;;;;;5052814;28;20094;-67
2022/01/11 00:41:46;;;;;;;290.73;49.88;;;;;;;;;;5053164;28;20102;-67
2022/01/11 00:44:12;;;;;;;106.60;36.50;;;;;;;;;;5052607;28;20045;-67
2022/01/11 00:46:40;;;;;;;169.93;38.58;;;;;;;;;;5052355;28;20453;-67
2022/01/11 00:49:06;;;;;;;177.57;38.72;;;;;;;;;;5051196;28;20080;-67
2022/01/11 00:51:32;;;;;;;315.15;48.22;;;;;;;;;;5053226;28;20049;-67
2022/01/11 00:53:58;;;;;;;355.23;49.30;;;;;;;;;;5048475;28;20057;-67
2022/01/11 00:56:24;;;;;;;143.13;35.55;;;;;;;;;;5053063;28;20064;-67
2022/01/11 00:58:55;;;;;;;174.90;37.40;;;;;;;;;;5052710;28;20078;-67
2022/01/11 01:01:21;;;;;;;129.90;35.83;;;;;;;;;;5052058;28;20092;-67
2022/01/11 01:03:47;;;;;;;410.80;52.95;;;;;;;;;;5051372;28;20124;-67
2022/01/11 01:06:13;;;;;;;225.20;41.45;;;;;;;;;;5046924;28;20083;-67
2022/01/11 01:08:39;;;;;;;133.10;35.97;;;;;;;;;;5053340;28;20062;-67
2022/01/11 01:11:05;;;;;;;159.23;39.58;;;;;;;;;;5051197;28;20041;-67
2022/01/11 01:13:31;;;;;;;371.55;53.70;;;;;;;;;;5053407;28;20048;-67
2022/01/11 01:15:57;;;;;;;166.48;37.97;;;;;;;;;;5051677;28;20495;-66
2022/01/11 01:18:25;;;;;;;248.55;46.08;;;;;;;;;;5054863;28;20045;-67
2022/01/11 01:20:52;;;;;;;288.23;45.92;;;;;;;;;;5055081;28;20041;-67
2022/01/11 01:23:19;;;;;;;218.93;42.15;;;;;;;;;;5030402;28;20391;-67
2022/01/11 01:25:45;;;;;;;101.32;33.65;;;;;;;;;;5054192;28;20052;-67
2022/01/11 01:28:11;;;;;;;196.05;41.50;;;;;;;;;;5029983;28;20411;-67
2022/01/11 01:30:38;;;;;;;378.98;55.33;;;;;;;;;;5053882;28;20098;-67
2022/01/11 01:33:04;;;;;;;224.73;43.08;;;;;;;;;;5051869;28;20045;-67
2022/01/11 01:35:37;;;;;;;176.90;38.25;;;;;;;;;;5052824;28;20132;-67
2022/01/11 01:38:04;;;;;;;107.28;34.40;;;;;;;;;;5034859;28;20052;-68
2022/01/11 01:40:37;;;;;;;115.05;33.33;;;;;;;;;;5054693;28;20053;-68
2022/01/11 01:43:04;;;;;;;177.63;36.05;;;;;;;;;;5054230;28;20380;-68
2022/01/11 01:45:30;;;;;;;179.77;38.10;;;;;;;;;;5054207;28;20045;-68
2022/01/11 01:47:58;;;;;;;92.80;31.33;;;;;;;;;;5052761;28;20124;-67
2022/01/11 01:50:24;;;;;;;186.52;36.40;;;;;;;;;;5043836;28;20053;-68
2022/01/11 01:52:50;;;;;;;119.55;33.55;;;;;;;;;;5054161;28;20086;-68
2022/01/11 01:55:17;;;;;;;170.55;35.88;;;;;;;;;;5056302;28;20095;-67
2022/01/11 01:57:44;;;;;;;142.40;33.55;;;;;;;;;;5029181;28;20045;-67
2022/01/11 02:00:12;;;;;;;170.63;36.60;;;;;;;;;;5053312;28;20045;-68
2022/01/11 02:02:39;;;;;;;132.80;34.00;;;;;;;;;;5041841;28;20056;-67
2022/01/11 02:05:06;;;;;;;123.97;32.75;;;;;;;;;;5054743;28;20052;-67
2022/01/11 02:07:33;;;;;;;82.47;29.45;;;;;;;;;;5045552;28;20046;-68
2022/01/11 02:10:01;;;;;;;104.93;31.40;;;;;;;;;;5051833;28;20045;-68
2022/01/11 02:12:27;;;;;;;164.55;36.10;;;;;;;;;;5056041;28;20506;-67
2022/01/11 02:14:53;;;;;;;186.02;37.05;;;;;;;;;;5033646;28;20502;-68
2022/01/11 02:17:19;;;;;;;119.68;32.05;;;;;;;;;;5055640;28;20077;-67
2022/01/11 02:19:46;;;;;;;133.90;32.78;;;;;;;;;;5054870;28;20071;-67
2022/01/11 02:22:12;;;;;;;116.68;31.10;;;;;;;;;;5053929;28;20041;-68
2022/01/11 02:24:38;;;;;;;141.25;33.75;;;;;;;;;;5019483;28;20041;-68
2022/01/11 02:27:04;;;;;;;155.82;33.22;;;;;;;;;;5048435;28;20132;-67
2022/01/11 02:29:31;;;;;;;159.35;33.95;;;;;;;;;;5051407;28;20045;-68
2022/01/11 02:31:57;;;;;;;136.90;33.22;;;;;;;;;;5053781;28;20045;-69
2022/01/11 02:34:23;;;;;;;164.00;33.25;;;;;;;;;;5053904;28;20491;-68
2022/01/11 02:36:49;;;;;;;239.82;39.95;;;;;;;;;;5053476;28;20041;-68
2022/01/11 02:39:15;;;;;;;121.65;31.55;;;;;;;;;;5053475;28;20102;-68
2022/01/11 02:41:51;;;;;;;81.93;29.45;;;;;;;;;;5053599;28;20083;-68
2022/01/11 02:44:17;;;;;;;270.88;43.95;;;;;;;;;;5017535;28;20049;-68
2022/01/11 02:46:43;;;;;;;197.65;35.90;;;;;;;;;;5051185;28;20118;-68
2022/01/11 02:49:09;;;;;;;78.47;28.48;;;;;;;;;;5051358;28;20081;-68
2022/01/11 02:51:35;;;;;;;144.98;33.45;;;;;;;;;;5054567;28;20468;-68
2022/01/11 02:54:02;;;;;;;193.35;34.67;;;;;;;;;;5021620;28;20057;-68
2022/01/11 02:56:29;;;;;;;122.15;33.13;;;;;;;;;;5038310;28;20442;-68
2022/01/11 02:58:55;;;;;;;96.05;29.33;;;;;;;;;;5033120;28;20084;-67
2022/01/11 03:01:21;;;;;;;193.48;36.03;;;;;;;;;;5048883;28;20057;-68
2022/01/11 03:03:47;;;;;;;132.25;31.55;;;;;;;;;;5049765;28;20051;-67
2022/01/11 03:06:13;;;;;;;81.35;28.23;;;;;;;;;;5053662;28;20514;-67
2022/01/11 03:08:42;;;;;;;114.32;33.17;;;;;;;;;;5052946;28;20052;-67
2022/01/11 03:11:08;;;;;;;65.57;27.95;;;;;;;;;;5053022;28;20080;-68
2022/01/11 03:13:35;;;;;;;82.95;27.63;;;;;;;;;;5052390;28;20083;-67
2022/01/11 03:16:01;;;;;;;146.18;32.42;;;;;;;;;;5054305;28;20037;-68
2022/01/11 03:18:27;;;;;;;260.90;38.72;;;;;;;;;;5054082;28;20048;-67
2022/01/11 03:20:54;;;;;;;91.80;28.30;;;;;;;;;;5054176;28;20495;-67
2022/01/11 03:23:20;;;;;;;83.28;29.50;;;;;;;;;;5054401;28;20037;-67
2022/01/11 03:25:48;;;;;;;76.65;27.67;;;;;;;;;;5052708;28;20087;-67
2022/01/11 03:28:14;;;;;;;108.82;29.95;;;;;;;;;;5052494;28;20049;-67
2022/01/11 03:30:40;;;;;;;89.43;29.27;;;;;;;;;;5026623;28;20044;-67
2022/01/11 03:33:08;;;;;;;97.75;29.55;;;;;;;;;;5052174;28;20056;-68
2022/01/11 03:35:35;;;;;;;130.45;33.05;;;;;;;;;;5054477;28;20049;-67
2022/01/11 03:38:01;;;;;;;88.40;28.83;;;;;;;;;;5027930;28;20521;-67
2022/01/11 03:40:27;;;;;;;107.00;29.42;;;;;;;;;;5052483;28;20098;-67
2022/01/11 03:42:53;;;;;;;109.78;30.45;;;;;;;;;;5052687;28;20463;-68
2022/01/11 03:45:24;;;;;;;148.70;34.47;;;;;;;;;;5051945;28;20052;-67
2022/01/11 03:47:51;;;;;;;98.95;30.92;;;;;;;;;;5052660;28;20518;-67
2022/01/11 03:50:18;;;;;;;95.00;29.60;;;;;;;;;;5053265;28;20081;-68
2022/01/11 03:52:44;;;;;;;79.70;28.88;;;;;;;;;;5018484;28;20075;-68
2022/01/11 03:55:12;;;;;;;106.03;32.58;;;;;;;;;;5054062;28;20059;-67
2022/01/11 03:57:40;;;;;;;99.53;30.83;;;;;;;;;;5052991;28;20131;-67
2022/01/11 04:00:16;;;;;;;136.13;35.55;;;;;;;;;;5053333;28;20752;-68
2022/01/11 04:02:42;;;;;;;88.35;30.08;;;;;;;;;;5051752;28;20041;-67
2022/01/11 04:05:11;;;;;;;103.10;33.97;;;;;;;;;;5023633;28;20041;-66
2022/01/11 04:07:37;;;;;;;;;;;;;;;;;;5052963;28;20073;-67
2022/01/11 04:10:04;;;;;;;103.47;30.75;;;;;;;;;;5053863;28;20367;-67
2022/01/11 04:12:30;;;;;;;137.25;37.92;;;;;;;;;;5017218;28;20103;-67
2022/01/11 04:14:56;;;;;;;111.20;35.00;;;;;;;;;;5018379;28;20045;-67
2022/01/11 04:17:22;;;;;;;92.80;33.17;;;;;;;;;;5051509;28;20048;-68
2022/01/11 04:19:48;;;;;;;97.82;35.03;;;;;;;;;;5052398;28;20041;-67
2022/01/11 04:22:15;;;;;;;117.30;36.78;;;;;;;;;;5019331;28;20076;-67
2022/01/11 04:24:40;;;;;;;140.32;41.53;;;;;;;;;;5052293;28;20090;-67
2022/01/11 04:27:07;;;;;;;131.82;39.70;;;;;;;;;;5052096;28;20045;-67
2022/01/11 04:29:33;;;;;;;149.60;42.63;;;;;;;;;;5051575;28;20041;-67
2022/01/11 04:31:59;;;;;;;212.98;49.17;;;;;;;;;;5044504;28;20044;-67
2022/01/11 04:34:27;;;;;;;120.78;38.80;;;;;;;;;;5052692;28;20132;-67
2022/01/11 04:36:53;;;;;;;168.85;43.70;;;;;;;;;;5051535;28;20045;-67
2022/01/11 04:39:20;;;;;;;152.32;44.95;;;;;;;;;;5053206;28;20505;-68
2022/01/11 04:41:46;;;;;;;110.05;36.80;;;;;;;;;;5053407;28;20045;-67
2022/01/11 04:44:12;;;;;;;159.93;43.30;;;;;;;;;;5044683;28;20041;-67
2022/01/11 04:46:38;;;;;;;122.35;37.42;;;;;;;;;;5042704;28;20071;-67
2022/01/11 04:49:05;;;;;;;160.80;42.05;;;;;;;;;;5026340;28;20087;-67
2022/01/11 04:51:34;;;;;;;214.05;45.05;;;;;;;;;;5030615;28;20053;-67
2022/01/11 04:54:00;;;;;;;177.82;43.42;;;;;;;;;;5056591;28;20048;-67
2022/01/11 04:56:27;;;;;;;169.23;43.47;;;;;;;;;;5056535;28;20037;-67
2022/01/11 04:58:53;;;;;;;152.80;42.10;;;;;;;;;;5053442;28;20049;-67
2022/01/11 05:01:19;;;;;;;144.82;41.58;;;;;;;;;;5049020;28;20133;-67
2022/01/11 05:03:44;;;;;;;171.55;44.10;;;;;;;;;;5056521;28;20480;-67
2022/01/11 05:06:11;;;;;;;133.95;40.13;;;;;;;;;;5042378;28;20045;-67
2022/01/11 05:08:37;;;;;;;143.82;40.50;;;;;;;;;;5058086;28;20045;-67
2022/01/11 05:11:03;;;;;;;142.40;41.00;;;;;;;;;;5049395;28;20498;-67
2022/01/11 05:13:31;;;;;;;154.60;41.38;;;;;;;;;;5058902;28;20037;-67
2022/01/11 05:15:59;;;;;;;134.00;40.50;;;;;;;;;;5059980;28;20402;-67
2022/01/11 05:18:25;;;;;;;151.82;41.58;;;;;;;;;;5058438;28;20049;-67
2022/01/11 05:20:51;;;;;;;148.23;42.15;;;;;;;;;;5057370;28;20720;-68
2022/01/11 05:23:16;;;;;;;176.98;43.88;;;;;;;;;;5054335;28;20037;-67
2022/01/11 05:25:43;;;;;;;116.63;37.78;;;;;;;;;;5058772;28;20380;-67
2022/01/11 05:28:10;;;;;;;136.50;39.95;;;;;;;;;;5057855;28;20053;-68
2022/01/11 05:30:36;;;;;;;143.43;41.55;;;;;;;;;;5040275;28;20091;-67
2022/01/11 05:33:02;;;;;;;123.70;40.00;;;;;;;;;;5058709;28;20053;-66
2022/01/11 05:35:28;;;;;;;137.93;42.70;;;;;;;;;;5057972;28;20584;-67
2022/01/11 05:37:54;;;;;;;159.27;45.05;;;;;;;;;;5059520;28;20045;-66
2022/01/11 05:40:21;;;;;;;183.27;45.78;;;;;;;;;;5058803;28;20052;-66
2022/01/11 05:42:49;;;;;;;134.73;41.05;;;;;;;;;;5045875;28;20048;-67
2022/01/11 05:45:16;;;;;;;193.03;47.43;;;;;;;;;;5058992;28;20045;-67
2022/01/11 05:47:42;;;;;;;155.45;44.42;;;;;;;;;;5058915;28;20307;-67
2022/01/11 05:50:09;;;;;;;154.73;43.50;;;;;;;;;;5057853;28;20057;-67
2022/01/11 05:52:36;;;;;;;145.80;42.15;;;;;;;;;;5032756;28;20055;-67
2022/01/11 05:55:03;;;;;;;151.50;45.08;;;;;;;;;;5057224;28;20040;-68
2022/01/11 05:57:29;;;;;;;164.48;47.35;;;;;;;;;;5054962;28;20101;-68
2022/01/11 05:59:55;;;;;;;153.05;46.28;;;;;;;;;;5058175;28;20437;-68
2022/01/11 06:02:21;;;;;;;193.07;49.92;;;;;;;;;;5057216;28;20071;-68
2022/01/11 06:04:46;;;;;;;150.00;46.05;;;;;;;;;;5021193;28;20042;-68
2022/01/11 06:07:12;;;;;;;175.23;47.78;;;;;;;;;;5034176;28;20503;-68
2022/01/11 06:09:38;;;;;;;178.40;49.38;;;;;;;;;;5054016;28;20050;-68
2022/01/11 06:12:05;;;;;;;195.50;50.80;;;;;;;;;;5054358;28;20045;-68
2022/01/11 06:14:31;;;;;;;167.23;46.63;;;;;;;;;;5050796;28;20125;-68
2022/01/11 06:16:57;;;;;;;226.57;51.35;;;;;;;;;;5034001;28;20037;-68
2022/01/11 06:19:26;;;;;;;185.02;48.53;;;;;;;;;;5054682;28;20037;-67
2022/01/11 06:21:52;;;;;;;165.13;47.13;;;;;;;;;;5050086;28;20053;-68
2022/01/11 06:24:18;;;;;;;206.52;49.10;;;;;;;;;;5035325;28;20049;-68
2022/01/11 06:26:44;;;;;;;177.70;47.42;;;;;;;;;;5053920;28;20041;-68
2022/01/11 06:29:11;;;;;;;144.43;44.90;;;;;;;;;;5055335;28;20135;-68
2022/01/11 06:31:37;;;;;;;161.20;45.47;;;;;;;;;;5053456;28;20047;-68
2022/01/11 06:34:03;;;;;;;174.68;48.45;;;;;;;;;;5055150;28;20143;-67
2022/01/11 06:36:30;;;;;;;181.65;45.60;;;;;;;;;;5038326;28;20054;-67
2022/01/11 06:38:55;;;;;;;134.43;42.53;;;;;;;;;;5053666;28;20475;-67
2022/01/11 06:41:22;;;;;;;154.70;44.25;;;;;;;;;;5032741;28;20128;-68
2022/01/11 06:43:49;;;;;;;145.35;44.65;;;;;;;;;;5037586;28;20063;-67
2022/01/11 06:46:15;;;;;;;135.85;43.25;;;;;;;;;;5037176;28;20119;-67
2022/01/11 06:48:41;;;;;;;127.63;41.75;;;;;;;;;;5055011;28;20436;-67
2022/01/11 06:51:07;;;;;;;121.85;42.10;;;;;;;;;;5052632;28;20052;-68
2022/01/11 06:53:33;;;;;;;130.50;44.22;;;;;;;;;;5051584;28;20070;-67
2022/01/11 06:55:59;;;;;;;125.55;42.17;;;;;;;;;;5054818;28;20047;-67
2022/01/11 06:58:25;;;;;;;122.63;42.50;;;;;;;;;;5044648;28;20084;-67
2022/01/11 07:00:51;;;;;;;134.25;46.20;;;;;;;;;;5053557;28;20075;-67
2022/01/11 07:03:18;;;;;;;127.85;43.60;;;;;;;;;;5023368;28;20046;-67
2022/01/11 07:05:45;;;;;;;131.40;43.38;;;;;;;;;;5052237;28;20475;-67
2022/01/11 07:08:11;;;;;;;123.55;41.33;;;;;;;;;;5052900;28;20045;-67
2022/01/11 07:10:37;;;;;;;124.03;41.20;;;;;;;;;;5052200;28;20388;-67
2022/01/11 07:13:03;;;;;;;122.95;41.88;;;;;;;;;;5052849;28;20044;-68
2022/01/11 07:15:29;;;;;;;106.47;39.00;;;;;;;;;;5053468;28;20061;-67
2022/01/11 07:17:56;;;;;;;145.35;42.20;;;;;;;;;;5054040;28;20491;-67
2022/01/11 07:20:22;;;;;;;130.52;41.28;;;;;;;;;;5052926;28;20049;-68
2022/01/11 07:22:48;;;;;;;134.88;42.67;;;;;;;;;;5053126;28;20052;-67
2022/01/11 07:25:15;;;;;;;141.50;42.38;;;;;;;;;;5020194;28;20049;-67
2022/01/11 07:27:41;;;;;;;121.75;42.28;;;;;;;;;;5052279;28;20080;-67
2022/01/11 07:30:07;;;;;;;150.95;44.60;;;;;;;;;;5053909;28;20049;-68
2022/01/11 07:32:35;;;;;;;125.30;42.15;;;;;;;;;;5052591;28;20075;-67
2022/01/11 07:35:01;;;;;;;116.53;39.63;;;;;;;;;;5028052;28;20121;-67
2022/01/11 07:37:27;;;;;;;123.95;40.10;;;;;;;;;;5053438;28;20040;-67
2022/01/11 07:39:53;;;;;;;115.38;39.75;;;;;;;;;;5052857;28;20448;-68
2022/01/11 07:42:19;;;;;;;120.50;41.38;;;;;;;;;;5049792;28;20049;-68
2022/01/11 07:44:48;;;;;;;237.38;58.58;;;;;;;;;;5052116;28;20049;-68
2022/01/11 07:47:14;;;;;;;145.48;45.45;;;;;;;;;;5053289;28;20059;-69
2022/01/11 07:49:40;;;;;;;253.55;59.60;;;;;;;;;;5048972;28;20041;-68
2022/01/11 07:52:06;;;;;;;124.32;42.63;;;;;;;;;;5051621;28;20048;-66
2022/01/11 07:54:32;;;;;;;126.63;43.22;;;;;;;;;;5053523;28;20041;-67
2022/01/11 07:56:58;;;;;;;120.93;43.10;;;;;;;;;;5052846;28;20075;-67
2022/01/11 07:59:24;;;;;;;108.60;39.40;;;;;;;;;;5053370;28;20048;-67
2022/01/11 08:01:50;;;;;;;104.45;38.05;;;;;;;;;;5033192;28;20047;-67
2022/01/11 08:04:16;;;;;;;95.28;37.28;;;;;;;;;;5047136;28;20557;-67
2022/01/11 08:06:42;;;;;;;124.35;42.28;;;;;;;;;;5052562;28;20045;-67
2022/01/11 08:09:08;;;;;;;114.18;39.50;;;;;;;;;;5051617;28;20041;-68
2022/01/11 08:11:34;;;;;;;80.63;33.70;;;;;;;;;;5049342;28;20071;-67
2022/01/11 08:14:00;;;;;;;125.38;39.35;;;;;;;;;;5043610;28;20127;-68
2022/01/11 08:16:26;;;;;;;101.07;37.47;;;;;;;;;;5042895;28;20145;-68
2022/01/11 08:18:52;;;;;;;97.30;36.10;;;;;;;;;;5049175;28;20049;-68
2022/01/11 08:21:18;;;;;;;108.45;39.53;;;;;;;;;;5040303;28;20498;-67
2022/01/11 08:23:44;;;;;;;102.68;37.28;;;;;;;;;;5051341;28;20063;-68
2022/01/11 08:26:10;;;;;;;99.55;36.03;;;;;;;;;;5066763;28;20047;-68
2022/01/11 08:28:36;;;;;;;77.18;33.25;;;;;;;;;;5038170;28;20062;-68
2022/01/11 08:31:02;;;;;;;74.40;30.90;;;;;;;;;;5052286;28;20171;-68
2022/01/11 08:33:28;;;;;;;72.68;31.77;;;;;;;;;;5051883;28;20095;-69
2022/01/11 08:35:54;;;;;;;80.93;32.88;;;;;;;;;;5036867;28;20050;-69
2022/01/11 08:38:20;;;;;;;71.32;31.50;;;;;;;;;;5033893;28;20491;-67
2022/01/11 08:40:46;;;;;;;75.32;32.30;;;;;;;;;;5049909;28;20128;-67
2022/01/11 08:43:13;;;;;;;139.30;40.60;;;;;;;;;;5031731;28;20040;-69
2022/01/11 08:45:39;;;;;;;74.00;31.92;;;;;;;;;;5052508;28;20049;-67
2022/01/11 08:48:05;;;;;;;84.05;31.90;;;;;;;;;;5050243;28;20107;-66
2022/01/11 08:50:32;;;;;;;73.10;31.35;;;;;;;;;;5051563;28;20057;-68
2022/01/11 08:52:58;;;;;;;80.38;32.58;;;;;;;;;;5054054;28;20380;-67
2022/01/11 08:55:24;;;;;;;98.45;33.00;;;;;;;;;;5052907;28;20098;-67
2022/01/11 08:57:51;;;;;;;64.93;28.95;;;;;;;;;;5023538;28;20460;-67
2022/01/11 09:00:18;;;;;;;69.75;29.67;;;;;;;;;;5031713;28;20403;-66
2022/01/11 09:02:48;;;;;;;64.15;27.98;;;;;;;;;;5053123;28;20052;-66
2022/01/11 09:05:14;;;;;;;70.68;29.42;;;;;;;;;;5053989;28;20045;-66
2022/01/11 09:07:40;;;;;;;58.75;27.27;;;;;;;;;;5052052;28;20045;-66
2022/01/11 09:10:07;;;;;;;60.90;27.63;;;;;;;;;;5052397;28;20048;-67
2022/01/11 09:12:33;;;;;;;67.20;27.50;;;;;;;;;;5050889;28;20067;-66
2022/01/11 09:14:59;;;;;;;71.63;29.00;;;;;;;;;;5053381;28;20052;-67
2022/01/11 09:17:25;;;;;;;57.92;26.88;;;;;;;;;;5038843;28;20591;-67
2022/01/11 09:19:51;;;;;;;62.47;26.90;;;;;;;;;;5056893;28;20045;-67
2022/01/11 09:22:17;;;;;;;62.17;27.20;;;;;;;;;;5053736;28;20414;-68
2022/01/11 09:24:43;;;;;;;66.50;27.77;;;;;;;;;;5056661;28;20037;-69
2022/01/11 09:27:09;;;;;;;57.97;25.98;;;;;;;;;;5056385;28;20059;-68
2022/01/11 09:29:39;;;;;;;54.17;25.45;;;;;;;;;;5055590;28;20440;-68
2022/01/11 09:32:06;;;;;;;61.22;25.20;;;;;;;;;;5056840;28;20041;-68
2022/01/11 09:34:32;;;;;;;49.53;24.67;;;;;;;;;;5056938;28;20114;-68
2022/01/11 09:36:58;;;;;;;65.32;26.90;;;;;;;;;;5056528;28;20045;-68
2022/01/11 09:39:25;;;;;;;58.20;25.42;;;;;;;;;;5060597;28;20049;-68
2022/01/11 09:41:51;;;;;;;54.78;25.13;;;;;;;;;;5043296;28;20057;-68
2022/01/11 09:44:18;;;;;;;94.90;31.23;;;;;;;;;;5024926;28;20049;-68
2022/01/11 09:46:44;;;;;;;48.97;24.23;;;;;;;;;;5057202;28;20128;-68
2022/01/11 09:49:11;;;;;;;60.20;24.88;;;;;;;;;;5058605;28;20098;-68
2022/01/11 09:51:38;;;;;;;52.30;25.13;;;;;;;;;;5034103;28;20080;-68
2022/01/11 09:54:05;;;;;;;60.85;24.20;;;;;;;;;;5057952;28;20052;-68
2022/01/11 09:56:34;;;;;;;52.53;22.58;;;;;;;;;;5058781;28;20056;-68
2022/01/11 09:59:00;;;;;;;;;;;;;;;;;;5058643;28;20091;-69
2022/01/11 10:01:26;;;;;;;140.98;35.53;;;;;;;;;;5041579;28;19921;-68
2022/01/11 10:03:58;;;;;;;63.80;25.00;;;;;;;;;;5056329;28;20621;-68
2022/01/11 10:06:25;;;;;;;68.00;24.77;;;;;;;;;;5021935;28;20045;-67
2022/01/11 10:08:51;;;;;;;41.60;19.83;;;;;;;;;;5034876;28;20569;-66
2022/01/11 10:11:37;;;;;;;58.55;23.85;;;;;;;;;;5054653;28;20376;-67
2022/01/11 10:14:16;;;;;;;110.20;30.52;;;;;;;;;;5054623;28;20041;-67
2022/01/11 10:16:43;;;;;;;75.28;24.00;;;;;;;;;;5038431;28;20057;-67
2022/01/11 10:19:20;;;;;;;79.55;25.33;;;;;;;;;;5056678;28;20072;-67
2022/01/11 10:21:47;;;;;;;34.20;16.70;;;;;;;;;;5055291;28;20060;-66
2022/01/11 10:24:35;;;;;;;60.25;20.30;;;;;;;;;;5054184;28;20106;-66
2022/01/11 10:27:21;;;;;;;35.63;16.42;;;;;;;;;;5054688;28;20060;-66
2022/01/11 10:29:58;;;;;;;38.70;16.98;;;;;;;;;;5038339;28;20052;-66
2022/01/11 10:32:31;;;;;;;52.30;18.73;;;;;;;;;;5053594;28;20084;-66
2022/01/11 10:34:59;;;;;;;33.42;16.55;;;;;;;;;;5055661;28;20102;-66
2022/01/11 10:37:30;;;;;;;33.42;16.40;;;;;;;;;;5053874;28;20041;-67
2022/01/11 10:40:03;;;;;;;61.20;20.85;;;;;;;;;;5054434;28;20390;-66
2022/01/11 10:42:33;;;;;;;42.13;17.23;;;;;;;;;;5054156;28;20498;-67
2022/01/11 10:45:01;;;;;;;96.50;24.67;;;;;;;;;;5055971;28;20088;-67
2022/01/11 10:47:29;;;;;;;45.50;18.57;;;;;;;;;;5057039;28;20055;-67
2022/01/11 10:49:56;;;;;;;44.72;18.00;;;;;;;;;;5053407;28;20040;-67
2022/01/11 10:52:24;;;;;;;53.57;19.13;;;;;;;;;;5054048;28;20131;-68
2022/01/11 10:54:51;;;;;;;42.55;16.98;;;;;;;;;;5054757;28;20052;-68
2022/01/11 10:57:37;;;;;;;196.82;46.17;;;;;;;;;;5054610;28;20088;-67
2022/01/11 11:00:06;;;;;;;75.75;24.45;;;;;;;;;;5037969;28;20072;-67
2022/01/11 11:02:32;;;;;;;57.47;20.48;;;;;;;;;;5051938;28;20088;-68
2022/01/11 11:05:00;;;;;;;48.25;18.20;;;;;;;;;;5052951;28;20076;-67
2022/01/11 11:07:27;;;;;;;76.25;22.95;;;;;;;;;;5058609;28;20061;-68
2022/01/11 11:09:54;;;;;;;38.95;16.88;;;;;;;;;;5052950;28;20099;-68
2022/01/11 11:12:21;;;;;;;102.30;25.80;;;;;;;;;;5053734;28;20125;-69
2022/01/11 11:14:55;;;;;;;36.13;16.25;;;;;;;;;;5063710;28;20045;-67
2022/01/11 11:17:32;;;;;;;32.38;16.33;;;;;;;;;;5068726;28;20147;-66
2022/01/11 11:20:08;;;;;;;37.25;15.20;;;;;;;;;;5054179;28;20045;-66
2022/01/11 11:22:34;;;;;;;70.45;21.73;;;;;;;;;;5069603;28;20021;-67
2022/01/11 11:25:02;;;;;;;64.32;19.77;;;;;;;;;;5071664;28;20060;-66
2022/01/11 11:27:30;;;;;;;42.20;16.65;;;;;;;;;;5071448;28;20045;-67
2022/01/11 11:29:57;;;;;;;29.02;14.20;;;;;;;;;;5071287;28;20053;-66
2022/01/11 11:32:23;;;;;;;36.25;15.55;;;;;;;;;;5069600;28;20041;-66
2022/01/11 11:34:49;;;;;;;29.48;14.27;;;;;;;;;;5055540;28;20045;-67
2022/01/11 11:37:22;;;;;;;35.53;14.55;;;;;;;;;;5045635;28;20054;-67
2022/01/11 11:39:53;;;;;;;34.40;14.43;;;;;;;;;;5064960;28;20041;-67
2022/01/11 11:42:19;;;;;;;27.67;13.70;;;;;;;;;;5070073;28;20049;-67
2022/01/11 11:44:48;;;;;;;37.58;15.00;;;;;;;;;;5064347;28;20045;-67
2022/01/11 11:47:14;;;;;;;40.47;15.15;;;;;;;;;;5064232;28;20052;-68
2022/01/11 11:49:44;;;;;;;27.38;13.05;;;;;;;;;;5066315;28;20053;-67
2022/01/11 11:52:28;;;;;;;25.23;12.40;;;;;;;;;;5063082;28;20122;-67
2022/01/11 11:54:56;;;;;;;25.55;12.50;;;;;;;;;;5065600;28;20052;-68
2022/01/11 11:57:22;;;;;;;29.02;12.73;;;;;;;;;;5056973;28;20418;-68
2022/01/11 11:59:53;;;;;;;32.25;13.35;;;;;;;;;;5048042;28;20053;-69
2022/01/11 12:02:32;;;;;;;27.13;13.32;;;;;;;;;;5050735;28;20056;-69
2022/01/11 12:04:59;;;;;;;30.23;13.18;;;;;;;;;;5033309;28;20045;-68
2022/01/11 12:07:33;;;;;;;50.38;16.30;;;;;;;;;;5052624;28;20136;-68
2022/01/11 12:10:00;;;;;;;37.88;14.70;;;;;;;;;;5051395;28;20056;-68
2022/01/11 12:12:50;;;;;;;44.63;16.65;;;;;;;;;;5034890;28;20075;-69
2022/01/11 12:15:22;;;;;;;30.75;13.93;;;;;;;;;;5048031;28;20052;-68
2022/01/11 12:17:54;;;;;;;24.98;12.70;;;;;;;;;;5035265;28;20049;-68
2022/01/11 12:20:43;;;;;;;31.75;12.82;;;;;;;;;;5036415;28;20127;-68
2022/01/11 12:23:23;;;;;;;34.35;13.57;;;;;;;;;;5044623;28;20079;-68
2022/01/11 12:25:53;;;;;;;29.45;14.00;;;;;;;;;;5052017;28;20410;-68
2022/01/11 12:28:20;;;;;;;33.75;13.77;;;;;;;;;;5064814;28;20045;-68
2022/01/11 12:30:46;;;;;;;31.08;13.68;;;;;;;;;;5049198;28;20136;-68
2022/01/11 12:33:19;;;;;;;46.47;15.75;;;;;;;;;;5052562;28;20115;-69
2022/01/11 12:35:53;;;;;;;40.50;15.70;;;;;;;;;;5052955;28;20056;-68
2022/01/11 12:38:19;;;;;;;27.98;13.50;;;;;;;;;;5051674;28;20503;-68
2022/01/11 12:40:45;;;;;;;29.23;12.68;;;;;;;;;;5051241;28;20049;-68
2022/01/11 12:43:20;;;;;;;26.98;12.82;;;;;;;;;;5052596;28;20423;-68
2022/01/11 12:46:05;;;;;;;29.05;14.05;;;;;;;;;;5025976;28;20041;-68
2022/01/11 12:48:50;;;;;;;28.67;13.48;;;;;;;;;;5045249;28;20091;-68
2022/01/11 12:51:22;;;;;;;34.42;14.40;;;;;;;;;;5056728;28;20079;-68
2022/01/11 12:53:49;;;;;;;59.08;18.67;;;;;;;;;;5051453;28;20041;-66
2022/01/11 12:56:15;;;;;;;27.60;13.68;;;;;;;;;;5051825;28;20107;-67
2022/01/11 12:58:43;;;;;;;30.30;14.38;;;;;;;;;;5053247;28;20120;-67
2022/01/11 13:01:16;;;;;;;36.20;14.35;;;;;;;;;;5051911;28;20052;-67
2022/01/11 13:03:49;;;;;;;27.25;12.75;;;;;;;;;;5053873;28;20049;-67
2022/01/11 13:06:15;;;;;;;36.63;13.60;;;;;;;;;;5052330;28;20045;-67
2022/01/11 13:08:42;;;;;;;25.58;13.88;;;;;;;;;;5034633;28;20049;-67
2022/01/11 13:11:18;;;;;;;30.08;14.02;;;;;;;;;;5054181;28;20094;-67
2022/01/11 13:13:53;;;;;;;30.55;14.18;;;;;;;;;;5039580;28;20106;-67
2022/01/11 13:16:27;;;;;;;43.92;17.55;;;;;;;;;;5057206;28;20049;-66
2022/01/11 13:18:53;;;;;;;30.10;13.48;;;;;;;;;;5057943;28;20084;-67
2022/01/11 13:21:23;;;;;;;26.65;13.65;;;;;;;;;;5057084;28;20041;-67
2022/01/11 13:24:01;;;;;;;39.13;15.90;;;;;;;;;;5056052;28;20055;-67
2022/01/11 13:26:30;;;;;;;35.45;13.85;;;;;;;;;;5036979;28;20041;-67
2022/01/11 13:28:58;;;;;;;67.90;20.88;;;;;;;;;;5057538;28;20127;-66
2022/01/11 13:31:26;;;;;;;98.20;25.90;;;;;;;;;;5057152;28;20394;-66
2022/01/11 13:34:00;;;;;;;45.13;16.47;;;;;;;;;;5056164;28;20057;-67
2022/01/11 13:36:30;;;;;;;37.85;14.00;;;;;;;;;;5053981;28;20420;-67
2022/01/11 13:39:05;;;;;;;32.33;14.20;;;;;;;;;;5039583;28;20057;-67
2022/01/11 13:41:48;;;;;;;56.85;17.00;;;;;;;;;;5056620;28;20049;-67
2022/01/11 13:44:14;;;;;;;34.63;14.52;;;;;;;;;;5056309;28;20042;-65
2022/01/11 13:46:46;;;;;;;47.78;17.52;;;;;;;;;;5057223;28;20051;-66
2022/01/11 13:49:18;;;;;;;42.90;16.02;;;;;;;;;;5056445;28;20076;-65
2022/01/11 13:51:45;;;;;;;30.58;13.98;;;;;;;;;;5056937;28;20459;-65
2022/01/11 13:54:12;;;;;;;33.42;14.48;;;;;;;;;;5053260;28;20095;-67
2022/01/11 13:56:43;;;;;;;107.45;61.72;;;;;;;;;;5049483;28;20040;-67
2022/01/11 13:59:11;;;;;;;76.30;40.08;;;;;;;;;;5056102;28;20060;-67
2022/01/11 14:01:37;;;;;;;209.00;119.82;;;;;;;;;;5054665;28;20048;-67
2022/01/11 14:04:05;;;;;;;60.85;29.40;;;;;;;;;;5052351;28;20076;-67
2022/01/11 14:06:38;;;;;;;55.33;23.70;;;;;;;;;;5052127;28;20049;-67
2022/01/11 14:09:04;;;;;;;97.70;27.60;;;;;;;;;;5044309;28;20045;-67
2022/01/11 14:11:34;;;;;;;89.13;33.63;;;;;;;;;;5054631;28;20494;-67
2022/01/11 14:14:02;;;;;;;62.03;20.98;;;;;;;;;;5054108;28;20045;-67
2022/01/11 14:16:33;;;;;;;113.82;28.05;;;;;;;;;;5056586;28;20166;-66